createdAt,value
2022-09-09T00:00:13.960Z,14.90
2022-09-09T00:02:44.940Z,14.90
2022-09-09T00:05:34.993Z,14.90
2022-09-09T00:08:05.019Z,15.00
2022-09-09T00:10:32.436Z,15.00
2022-09-09T00:13:02.286Z,15.00
2022-09-09T00:15:49.430Z,15.00
2022-09-09T00:18:30.386Z,15.00
2022-09-09T00:20:58.357Z,15.00
2022-09-09T00:23:26.329Z,15.00
2022-09-09T00:26:09.485Z,14.90
2022-09-09T00:28:40.382Z,14.90
2022-09-09T00:31:17.548Z,15.00
2022-09-09T00:33:44.559Z,14.90
2022-09-09T00:36:16.922Z,14.90
2022-09-09T00:38:48.447Z,14.90
2022-09-09T00:41:20.822Z,14.80
2022-09-09T00:44:18.049Z,14.80
2022-09-09T00:46:57.093Z,14.80
2022-09-09T00:49:27.078Z,14.80
2022-09-09T00:51:57.473Z,14.80
2022-09-09T00:54:29.865Z,14.80
2022-09-09T00:57:16.910Z,14.70
2022-09-09T00:59:43.992Z,14.70
2022-09-09T01:02:29.215Z,14.80
2022-09-09T01:05:01.130Z,14.70
2022-09-09T01:07:28.104Z,14.70
2022-09-09T01:09:59.309Z,14.70
2022-09-09T01:12:26.203Z,14.70
2022-09-09T01:14:57.189Z,14.70
2022-09-09T01:17:37.744Z,14.70
2022-09-09T01:20:18.259Z,14.70
2022-09-09T01:22:51.430Z,14.70
2022-09-09T01:25:37.028Z,14.70
2022-09-09T01:28:06.328Z,14.70
2022-09-09T01:30:34.323Z,14.70
2022-09-09T01:33:01.685Z,14.70
2022-09-09T01:35:40.807Z,14.70
2022-09-09T01:38:07.723Z,14.70
2022-09-09T01:40:34.783Z,14.70
2022-09-09T01:43:01.782Z,14.70
2022-09-09T01:45:29.237Z,14.70
2022-09-09T01:47:56.201Z,14.70
2022-09-09T01:50:23.717Z,14.70
2022-09-09T01:52:52.602Z,14.70
2022-09-09T01:55:22.580Z,14.70
2022-09-09T01:58:12.814Z,14.70
2022-09-09T02:00:43.443Z,14.60
2022-09-09T02:03:14.368Z,14.60
2022-09-09T02:05:42.881Z,14.60
2022-09-09T02:08:17.496Z,14.60
2022-09-09T02:10:44.928Z,14.60
2022-09-09T02:13:16.283Z,14.60
2022-09-09T02:16:02.053Z,14.60
2022-09-09T02:18:31.801Z,14.60
2022-09-09T02:20:58.909Z,14.70
2022-09-09T02:23:26.031Z,14.60
2022-09-09T02:25:54.070Z,14.70
2022-09-09T02:28:22.398Z,14.70
2022-09-09T02:30:54.796Z,14.70
2022-09-09T02:33:27.786Z,14.70
2022-09-09T02:35:55.047Z,14.70
2022-09-09T02:38:23.300Z,14.70
2022-09-09T02:40:50.201Z,14.70
2022-09-09T02:43:19.801Z,14.70
2022-09-09T02:46:10.471Z,14.70
2022-09-09T02:48:40.302Z,14.70
2022-09-09T02:51:28.269Z,14.70
2022-09-09T02:54:06.418Z,14.70
2022-09-09T02:56:34.908Z,14.70
2022-09-09T02:59:04.102Z,14.70
2022-09-09T03:01:31.051Z,14.70
2022-09-09T03:03:58.420Z,14.70
2022-09-09T03:06:25.280Z,14.70
2022-09-09T03:08:53.590Z,14.70
2022-09-09T03:11:20.449Z,14.70
2022-09-09T03:13:47.293Z,14.70
2022-09-09T03:16:14.279Z,14.60
2022-09-09T03:18:41.189Z,14.70
2022-09-09T03:21:08.104Z,14.70
2022-09-09T03:23:35.050Z,14.70
2022-09-09T03:26:02.039Z,14.70
2022-09-09T03:28:32.521Z,14.60
2022-09-09T03:31:03.144Z,14.70
2022-09-09T03:33:30.598Z,14.70
2022-09-09T03:35:57.776Z,14.70
2022-09-09T03:38:25.013Z,14.70
2022-09-09T03:41:01.340Z,14.70
2022-09-09T03:43:28.977Z,14.70
2022-09-09T03:45:58.608Z,14.70
2022-09-09T03:48:26.857Z,14.70
2022-09-09T03:50:54.326Z,14.70
2022-09-09T03:53:22.239Z,14.70
2022-09-09T03:55:51.037Z,14.70
2022-09-09T03:58:19.960Z,14.70
2022-09-09T04:00:57.052Z,14.70
2022-09-09T04:03:27.999Z,14.70
2022-09-09T04:05:56.306Z,14.70
2022-09-09T04:08:24.285Z,14.70
2022-09-09T04:10:51.141Z,14.70
2022-09-09T04:13:18.908Z,14.70
2022-09-09T04:15:46.221Z,14.70
2022-09-09T04:18:16.966Z,14.70
2022-09-09T04:20:50.107Z,14.70
2022-09-09T04:23:17.214Z,14.70
2022-09-09T04:25:51.059Z,14.80
2022-09-09T04:28:19.088Z,14.70
2022-09-09T04:30:46.258Z,14.80
2022-09-09T04:33:14.037Z,14.70
2022-09-09T04:35:45.133Z,14.70
2022-09-09T04:38:12.002Z,14.70
2022-09-09T04:40:43.944Z,14.70
2022-09-09T04:43:14.360Z,14.70
2022-09-09T04:45:41.948Z,14.70
2022-09-09T04:48:10.748Z,14.70
2022-09-09T04:50:37.588Z,14.60
2022-09-09T04:53:06.007Z,14.60
2022-09-09T04:55:35.798Z,14.60
2022-09-09T04:58:06.531Z,14.60
2022-09-09T05:00:34.869Z,14.50
2022-09-09T05:03:05.681Z,14.50
2022-09-09T05:05:33.102Z,14.50
2022-09-09T05:08:04.426Z,14.40
2022-09-09T05:10:31.481Z,14.40
2022-09-09T05:12:58.411Z,14.40
2022-09-09T05:15:25.273Z,14.40
2022-09-09T05:17:54.290Z,14.40
2022-09-09T05:20:21.221Z,14.40
2022-09-09T05:22:48.109Z,14.40
2022-09-09T05:25:15.046Z,14.40
2022-09-09T05:27:41.940Z,14.40
2022-09-09T05:30:09.346Z,14.40
2022-09-09T05:32:36.315Z,14.40
2022-09-09T05:35:03.342Z,14.40
2022-09-09T05:37:31.748Z,14.40
2022-09-09T05:39:59.124Z,14.50
2022-09-09T05:42:26.138Z,14.50
2022-09-09T05:44:55.437Z,14.50
2022-09-09T05:47:22.379Z,14.50
2022-09-09T05:49:50.494Z,14.60
2022-09-09T05:52:17.707Z,14.60
2022-09-09T05:54:44.961Z,14.60
2022-09-09T05:57:11.849Z,14.60
2022-09-09T05:59:39.469Z,14.60
2022-09-09T06:02:06.569Z,14.60
2022-09-09T06:04:33.760Z,14.60
2022-09-09T06:07:02.216Z,14.60
2022-09-09T06:09:29.112Z,14.70
2022-09-09T06:11:55.966Z,14.70
2022-09-09T06:14:23.084Z,14.70
2022-09-09T06:16:50.058Z,14.80
2022-09-09T06:19:16.987Z,14.80
2022-09-09T06:21:45.414Z,14.80
2022-09-09T06:24:14.947Z,14.90
2022-09-09T06:26:42.304Z,14.90
2022-09-09T06:29:09.302Z,14.90
2022-09-09T06:31:38.080Z,15.00
2022-09-09T06:34:06.181Z,15.00
2022-09-09T06:36:34.430Z,15.10
2022-09-09T06:39:01.835Z,15.10
2022-09-09T06:41:30.130Z,15.30
2022-09-09T06:43:57.182Z,15.30
2022-09-09T06:46:29.133Z,15.40
2022-09-09T06:48:57.273Z,15.40
2022-09-09T06:51:25.244Z,15.60
2022-09-09T06:53:54.541Z,15.80
2022-09-09T06:56:24.268Z,16.60
2022-09-09T06:58:52.876Z,17.50
2022-09-09T07:01:21.712Z,18.20
2022-09-09T07:03:49.836Z,18.40
2022-09-09T07:06:20.793Z,18.60
2022-09-09T07:08:56.828Z,18.20
2022-09-09T07:11:25.137Z,17.80
2022-09-09T07:13:52.214Z,17.30
2022-09-09T07:16:19.811Z,17.00
2022-09-09T07:18:46.754Z,16.80
2022-09-09T07:21:15.485Z,16.80
2022-09-09T07:23:42.919Z,17.00
2022-09-09T07:26:10.970Z,17.20
2022-09-09T07:28:38.360Z,17.40
2022-09-09T07:31:05.966Z,17.50
2022-09-09T07:33:36.285Z,17.60
2022-09-09T07:36:15.134Z,17.60
2022-09-09T07:38:44.678Z,17.70
2022-09-09T07:41:15.373Z,17.60
2022-09-09T07:43:43.165Z,17.60
2022-09-09T07:46:10.952Z,17.60
2022-09-09T07:48:37.976Z,17.90
2022-09-09T07:51:25.133Z,17.80
2022-09-09T07:53:59.222Z,17.80
2022-09-09T07:56:27.253Z,17.70
2022-09-09T07:58:55.349Z,17.70
2022-09-09T08:01:24.961Z,17.90
2022-09-09T08:03:56.847Z,18.10
2022-09-09T08:06:24.294Z,18.00
2022-09-09T08:08:51.829Z,18.10
2022-09-09T08:11:18.817Z,17.90
2022-09-09T08:13:47.435Z,17.70
2022-09-09T08:16:17.843Z,17.40
2022-09-09T08:18:45.863Z,17.20
2022-09-09T08:21:13.960Z,17.20
2022-09-09T08:23:42.343Z,17.20
2022-09-09T08:26:12.223Z,17.30
2022-09-09T08:28:39.478Z,17.30
2022-09-09T08:31:08.066Z,17.30
2022-09-09T08:33:35.246Z,17.30
2022-09-09T08:36:02.200Z,17.40
2022-09-09T08:38:29.756Z,17.50
2022-09-09T08:41:02.152Z,17.50
2022-09-09T08:43:33.453Z,17.60
2022-09-09T08:46:06.578Z,17.80
2022-09-09T08:48:42.868Z,17.80
2022-09-09T08:51:09.812Z,17.90
2022-09-09T08:53:43.885Z,17.90
2022-09-09T08:56:12.738Z,18.10
2022-09-09T08:58:58.583Z,18.20
2022-09-09T09:01:36.658Z,18.40
2022-09-09T09:04:22.229Z,18.60
2022-09-09T09:07:07.172Z,18.60
2022-09-09T09:09:43.070Z,18.60
2022-09-09T09:12:30.137Z,18.60
2022-09-09T09:14:58.579Z,18.60
2022-09-09T09:17:27.345Z,18.50
2022-09-09T09:19:54.168Z,18.40
2022-09-09T09:22:23.286Z,18.40
2022-09-09T09:24:55.234Z,18.40
2022-09-09T09:27:40.828Z,18.40
2022-09-09T09:30:26.681Z,18.20
2022-09-09T09:32:59.465Z,18.30
2022-09-09T09:35:26.275Z,18.70
2022-09-09T09:40:49.862Z,19.20
2022-09-09T09:43:21.496Z,19.10
2022-09-09T09:46:13.889Z,18.90
2022-09-09T09:48:38.796Z,18.80
2022-09-09T09:51:15.009Z,18.60
2022-09-09T09:53:41.929Z,18.40
2022-09-09T09:56:13.101Z,18.20
2022-09-09T09:58:46.945Z,18.10
2022-09-09T10:01:25.543Z,18.20
2022-09-09T10:03:53.820Z,18.20
2022-09-09T10:06:38.606Z,18.20
2022-09-09T10:09:21.837Z,18.20
2022-09-09T10:11:56.730Z,18.40
2022-09-09T10:14:46.669Z,18.60
2022-09-09T10:17:14.276Z,18.80
2022-09-09T10:19:46.229Z,18.70
2022-09-09T10:22:29.230Z,18.60
2022-09-09T10:25:14.787Z,18.80
2022-09-09T10:27:45.486Z,19.20
2022-09-09T10:30:41.556Z,19.50
2022-09-09T10:33:22.458Z,19.70
2022-09-09T10:35:53.713Z,19.80
2022-09-09T10:38:39.042Z,19.70
2022-09-09T10:41:05.887Z,19.40
2022-09-09T10:43:52.083Z,19.10
2022-09-09T10:46:32.056Z,19.00
2022-09-09T10:49:11.778Z,18.80
2022-09-09T10:51:38.992Z,18.60
2022-09-09T10:54:20.736Z,18.50
2022-09-09T10:56:51.584Z,18.60
2022-09-09T10:59:23.783Z,18.80
2022-09-09T11:01:56.324Z,18.90
2022-09-09T11:04:36.301Z,19.00
2022-09-09T11:07:11.501Z,19.10
2022-09-09T11:09:43.059Z,19.20
2022-09-09T11:12:14.138Z,19.40
2022-09-09T11:14:46.409Z,19.60
2022-09-09T11:17:24.634Z,19.80
2022-09-09T11:19:52.049Z,20.10
2022-09-09T11:22:42.203Z,20.30
2022-09-09T11:25:12.163Z,20.20
2022-09-09T11:27:59.276Z,20.30
2022-09-09T11:30:56.882Z,20.30
2022-09-09T11:33:30.355Z,20.20
2022-09-09T11:36:16.003Z,20.20
2022-09-09T11:38:47.960Z,20.30
2022-09-09T11:41:21.017Z,20.30
2022-09-09T11:43:50.161Z,20.30
2022-09-09T11:46:19.576Z,20.10
2022-09-09T11:48:47.109Z,19.90
2022-09-09T11:51:17.351Z,19.80
2022-09-09T11:53:59.523Z,19.70
2022-09-09T11:56:45.188Z,19.60
2022-09-09T11:59:38.614Z,19.70
2022-09-09T12:02:14.558Z,19.70
2022-09-09T12:04:42.528Z,19.80
2022-09-09T12:07:09.342Z,19.80
2022-09-09T12:09:57.257Z,19.90
2022-09-09T12:12:40.453Z,19.90
2022-09-09T12:15:10.573Z,20.10
2022-09-09T12:17:47.728Z,20.40
2022-09-09T12:20:19.001Z,20.60
2022-09-09T12:22:57.969Z,20.60
2022-09-09T12:25:43.432Z,20.50
2022-09-09T12:28:16.477Z,20.30
2022-09-09T12:30:58.762Z,20.20
2022-09-09T12:33:26.680Z,20.00
2022-09-09T12:35:58.107Z,19.90
2022-09-09T12:38:31.149Z,19.80
2022-09-09T12:40:58.462Z,19.90
2022-09-09T12:43:26.982Z,19.90
2022-09-09T12:46:17.057Z,19.80
2022-09-09T12:48:46.890Z,19.80
2022-09-09T12:51:26.203Z,19.80
2022-09-09T12:53:53.180Z,19.80
2022-09-09T12:56:21.390Z,19.70
2022-09-09T12:58:50.454Z,19.60
2022-09-09T13:01:28.446Z,19.50
2022-09-09T13:03:55.788Z,19.40
2022-09-09T13:06:28.619Z,19.40
2022-09-09T13:08:57.087Z,19.40
2022-09-09T13:11:27.444Z,19.50
2022-09-09T13:13:55.629Z,19.80
2022-09-09T13:16:33.816Z,20.10
2022-09-09T13:19:03.652Z,20.20
2022-09-09T13:21:38.381Z,20.20
2022-09-09T13:24:09.651Z,20.00
2022-09-09T13:26:36.619Z,19.80
2022-09-09T13:29:18.855Z,19.60
2022-09-09T13:31:46.235Z,19.40
2022-09-09T13:34:14.379Z,19.30
2022-09-09T13:36:42.529Z,19.00
2022-09-09T13:39:19.918Z,18.80
2022-09-09T13:41:47.626Z,18.50
2022-09-09T13:44:37.758Z,18.40
2022-09-09T13:47:13.907Z,18.30
2022-09-09T13:49:41.194Z,18.70
2022-09-09T13:52:15.021Z,19.70
2022-09-09T13:54:42.969Z,20.00
2022-09-09T13:57:26.353Z,20.10
2022-09-09T14:00:04.522Z,20.70
2022-09-09T14:02:32.388Z,21.00
2022-09-09T14:04:59.310Z,20.50
2022-09-09T14:07:26.556Z,20.00
2022-09-09T14:09:53.644Z,19.70
2022-09-09T14:12:21.310Z,19.40
2022-09-09T14:14:48.215Z,19.20
2022-09-09T14:17:15.926Z,19.20
2022-09-09T14:19:43.834Z,19.10
2022-09-09T14:22:10.816Z,19.10
2022-09-09T14:24:37.700Z,19.10
2022-09-09T14:27:04.567Z,19.10
2022-09-09T14:29:31.460Z,19.00
2022-09-09T14:31:58.299Z,19.00
2022-09-09T14:34:25.450Z,19.00
2022-09-09T14:36:52.539Z,19.20
2022-09-09T14:39:19.541Z,19.10
2022-09-09T14:41:47.007Z,19.10
2022-09-09T14:44:13.882Z,19.10
2022-09-09T14:46:40.840Z,19.20
2022-09-09T14:49:07.745Z,19.30
2022-09-09T14:51:35.352Z,19.30
2022-09-09T14:54:03.286Z,19.30
2022-09-09T14:56:31.701Z,19.30
2022-09-09T14:58:59.638Z,19.30
2022-09-09T15:01:29.231Z,19.20
2022-09-09T15:04:00.577Z,19.10
2022-09-09T15:06:32.773Z,19.00
2022-09-09T15:09:00.482Z,18.90
2022-09-09T15:11:28.993Z,18.90
2022-09-09T15:13:55.903Z,18.80
2022-09-09T15:16:23.720Z,18.70
2022-09-09T15:18:55.320Z,18.60
2022-09-09T15:21:23.798Z,18.60
2022-09-09T15:23:51.052Z,18.40
2022-09-09T15:26:18.321Z,18.10
2022-09-09T15:28:46.253Z,17.70
2022-09-09T15:31:19.946Z,17.40
2022-09-09T15:33:54.589Z,17.20
2022-09-09T15:36:26.631Z,16.90
2022-09-09T15:38:58.981Z,16.60
2022-09-09T15:41:26.389Z,16.30
2022-09-09T15:43:55.785Z,16.10
2022-09-09T15:46:33.386Z,16.00
2022-09-09T15:49:07.728Z,16.00
2022-09-09T15:51:43.705Z,16.00
2022-09-09T15:54:33.212Z,15.90
2022-09-09T15:57:02.709Z,15.90
2022-09-09T15:59:30.698Z,15.90
2022-09-09T16:01:58.208Z,15.80
2022-09-09T16:04:25.578Z,15.80
2022-09-09T16:06:52.487Z,15.70
2022-09-09T16:09:19.714Z,15.70
2022-09-09T16:11:47.940Z,15.60
2022-09-09T16:14:16.759Z,15.60
2022-09-09T16:16:43.764Z,15.50
2022-09-09T16:19:13.556Z,15.40
2022-09-09T16:21:42.167Z,15.50
2022-09-09T16:24:09.819Z,15.40
2022-09-09T16:26:38.079Z,15.30
2022-09-09T16:29:05.337Z,15.30
2022-09-09T16:31:33.353Z,15.20
2022-09-09T16:34:00.349Z,15.30
2022-09-09T16:36:28.797Z,15.30
2022-09-09T16:38:56.333Z,15.30
2022-09-09T16:41:23.214Z,15.20
2022-09-09T16:43:53.905Z,15.30
2022-09-09T16:46:21.477Z,15.30
2022-09-09T16:48:48.849Z,15.40
2022-09-09T16:51:17.231Z,15.40
2022-09-09T16:53:44.391Z,15.50
2022-09-09T16:56:13.663Z,15.60
2022-09-09T16:58:40.668Z,15.60
2022-09-09T17:01:07.616Z,15.70
2022-09-09T17:03:34.832Z,15.60
2022-09-09T17:06:03.509Z,15.70
2022-09-09T17:08:30.842Z,15.70
2022-09-09T17:10:58.650Z,15.70
2022-09-09T17:13:26.185Z,15.60
2022-09-09T17:15:53.241Z,15.50
2022-09-09T17:18:21.729Z,15.50
2022-09-09T17:20:48.655Z,15.50
2022-09-09T17:23:16.503Z,15.50
2022-09-09T17:25:44.353Z,15.40
2022-09-09T17:28:11.261Z,15.30
2022-09-09T17:30:38.227Z,15.20
2022-09-09T17:33:05.776Z,15.20
2022-09-09T17:35:32.712Z,15.10
2022-09-09T17:38:00.408Z,15.10
2022-09-09T17:40:28.214Z,15.00
2022-09-09T17:42:56.652Z,14.90
2022-09-09T17:45:24.313Z,14.90
2022-09-09T17:47:51.179Z,14.80
2022-09-09T17:50:19.539Z,14.80
2022-09-09T17:52:46.389Z,14.70
2022-09-09T17:55:13.337Z,14.70
2022-09-09T17:57:40.195Z,14.70
2022-09-09T18:00:07.826Z,14.60
2022-09-09T18:02:34.753Z,14.60
2022-09-09T18:05:03.314Z,14.50
2022-09-09T18:07:30.552Z,14.50
2022-09-09T18:09:58.546Z,14.50
2022-09-09T18:12:25.503Z,14.50
2022-09-09T18:14:52.618Z,14.40
2022-09-09T18:17:19.558Z,14.40
2022-09-09T18:19:46.489Z,14.40
2022-09-09T18:22:13.664Z,14.50
2022-09-09T18:24:41.543Z,14.50
2022-09-09T18:27:08.436Z,14.50
2022-09-09T18:29:37.237Z,14.50
2022-09-09T18:32:04.230Z,14.50
2022-09-09T18:34:31.262Z,14.50
2022-09-09T18:36:58.188Z,14.60
2022-09-09T18:39:27.791Z,14.50
2022-09-09T18:41:56.627Z,14.60
2022-09-09T18:44:26.001Z,14.60
2022-09-09T18:46:53.942Z,14.60
2022-09-09T18:49:21.804Z,14.60
2022-09-09T18:51:48.814Z,14.60
2022-09-09T18:54:18.867Z,14.60
2022-09-09T18:56:46.119Z,14.60
2022-09-09T18:59:15.028Z,14.60
2022-09-09T19:01:42.565Z,14.60
2022-09-09T19:04:09.505Z,14.50
2022-09-09T19:06:41.294Z,14.50
2022-09-09T19:09:12.098Z,14.50
2022-09-09T19:11:40.027Z,14.50
2022-09-09T19:14:08.238Z,14.50
2022-09-09T19:16:35.916Z,14.40
2022-09-09T19:19:06.972Z,14.40
2022-09-09T19:21:38.479Z,14.30
2022-09-09T19:24:07.741Z,14.30
2022-09-09T19:26:41.627Z,14.30
2022-09-09T19:29:11.919Z,14.30
2022-09-09T19:31:39.307Z,14.20
2022-09-09T19:34:06.304Z,14.20
2022-09-09T19:36:34.231Z,14.20
2022-09-09T19:39:01.957Z,14.20
2022-09-09T19:41:29.462Z,14.10
2022-09-09T19:43:57.909Z,14.10
2022-09-09T19:46:24.832Z,14.10
2022-09-09T19:48:51.887Z,14.00
2022-09-09T19:51:20.018Z,14.00
2022-09-09T19:53:51.274Z,14.00
2022-09-09T19:56:19.510Z,14.00
2022-09-09T19:58:47.738Z,14.00
2022-09-09T20:01:25.489Z,14.00
2022-09-09T20:03:54.471Z,14.00
2022-09-09T20:06:24.440Z,14.00
2022-09-09T20:08:51.392Z,14.00
2022-09-09T20:11:18.506Z,14.00
2022-09-09T20:13:45.350Z,14.00
2022-09-09T20:16:13.694Z,14.00
2022-09-09T20:18:42.639Z,14.00
2022-09-09T20:21:15.063Z,14.00
2022-09-09T20:23:42.480Z,14.00
2022-09-09T20:26:13.664Z,14.10
2022-09-09T20:28:43.065Z,14.10
2022-09-09T20:31:12.735Z,14.10
2022-09-09T20:33:40.510Z,14.10
2022-09-09T20:36:11.642Z,14.20
2022-09-09T20:38:42.872Z,14.20
2022-09-09T20:41:14.496Z,14.20
2022-09-09T20:43:46.800Z,14.20
2022-09-09T20:46:13.765Z,14.20
2022-09-09T20:48:42.322Z,14.20
2022-09-09T20:51:11.770Z,14.20
2022-09-09T20:53:39.326Z,14.20
2022-09-09T20:56:06.770Z,14.20
2022-09-09T20:58:33.884Z,14.20
2022-09-09T21:01:01.128Z,14.20
2022-09-09T21:03:32.245Z,14.20
2022-09-09T21:06:02.873Z,14.20
2022-09-09T21:08:30.679Z,14.20
2022-09-09T21:10:57.696Z,14.20
2022-09-09T21:13:24.755Z,14.20
2022-09-09T21:15:52.218Z,14.20
2022-09-09T21:18:19.235Z,14.20
2022-09-09T21:20:47.484Z,14.20
2022-09-09T21:23:15.126Z,14.30
2022-09-09T21:25:42.057Z,14.20
2022-09-09T21:28:09.409Z,14.20
2022-09-09T21:30:43.403Z,14.20
2022-09-09T21:33:11.532Z,14.20
2022-09-09T21:35:42.093Z,14.20
2022-09-09T21:38:11.911Z,14.10
2022-09-09T21:40:39.183Z,14.10
2022-09-09T21:43:07.248Z,14.10
2022-09-09T21:45:37.642Z,14.00
2022-09-09T21:48:08.364Z,14.00
2022-09-09T21:50:38.956Z,14.00
2022-09-09T21:53:06.350Z,13.90
2022-09-09T21:55:39.174Z,13.90
2022-09-09T21:58:06.101Z,13.90
2022-09-09T22:00:33.048Z,13.90
2022-09-09T22:03:00.363Z,13.90
2022-09-09T22:05:27.448Z,13.90
2022-09-09T22:07:54.528Z,13.90
2022-09-09T22:10:21.921Z,13.90
2022-09-09T22:12:49.048Z,13.90
2022-09-09T22:15:15.985Z,13.90
2022-09-09T22:17:42.867Z,13.90
2022-09-09T22:20:10.198Z,13.90
2022-09-09T22:22:37.075Z,13.90
2022-09-09T22:25:04.488Z,13.90
2022-09-09T22:27:31.373Z,13.90
2022-09-09T22:29:58.433Z,13.90
2022-09-09T22:32:25.808Z,14.00
2022-09-09T22:34:52.697Z,13.90
2022-09-09T22:37:19.535Z,13.90
2022-09-09T22:39:46.412Z,13.90
2022-09-09T22:42:15.209Z,13.90
2022-09-09T22:44:42.076Z,13.80
2022-09-09T22:47:08.907Z,13.90
2022-09-09T22:49:36.734Z,13.80
2022-09-09T22:52:03.757Z,13.90
2022-09-09T22:54:30.655Z,13.90
2022-09-09T22:56:57.515Z,13.80
2022-09-09T22:59:24.329Z,13.80
2022-09-09T23:01:51.593Z,13.70
2022-09-09T23:04:23.781Z,13.70
2022-09-09T23:06:50.612Z,13.70
2022-09-09T23:09:18.138Z,13.70
2022-09-09T23:11:46.971Z,13.60
2022-09-09T23:14:14.915Z,13.60
2022-09-09T23:16:45.539Z,13.60
2022-09-09T23:19:15.998Z,13.60
2022-09-09T23:21:44.263Z,13.60
2022-09-09T23:24:12.136Z,13.60
2022-09-09T23:26:39.002Z,13.60
2022-09-09T23:29:05.879Z,13.60
2022-09-09T23:31:33.970Z,13.70
2022-09-09T23:34:01.123Z,13.70
2022-09-09T23:36:31.780Z,13.70
2022-09-09T23:38:59.670Z,13.70
2022-09-09T23:41:27.101Z,13.70
2022-09-09T23:43:54.138Z,13.70
2022-09-09T23:46:22.782Z,13.70
2022-09-09T23:48:52.845Z,13.70
2022-09-09T23:51:23.894Z,13.70
2022-09-09T23:53:53.034Z,13.70
2022-09-09T23:56:20.625Z,13.70
2022-09-09T23:58:48.315Z,13.70
